Time;durP1;ratioP1;P1;durP2;ratioP2;P2;SDS_P1;SDS_P2;PMS_P1;PMS_P2;Temp;Humidity;BMP_temperature;BMP_pressure;BME280_temperature;BME280_humidity;BME280_pressure;Samples;Min_cycle;Max_cycle;Signal;HPM_P1;HPM_P2
2023/01/01 00:02:03;;;;;;;88.72;53.45;;;;;;;13.87;100.00;100539.25;5029951;28;20111;-70
2023/01/01 00:04:29;;;;;;;101.53;59.53;;;;;;;13.83;100.00;100535.72;5031208;28;20076;-70
2023/01/01 00:06:54;;;;;;;98.10;57.47;;;;;;;13.81;100.00;100538.38;5031199;28;20030;-70
2023/01/01 00:12:04;;;;;;;68.30;40.70;;;;;;;13.79;100.00;100540.13;5032893;28;20040;-70
2023/01/01 00:14:29;;;;;;;48.47;27.27;;;;;;;13.83;100.00;100531.31;5032155;28;20465;-70
2023/01/01 00:16:54;;;;;;;56.28;27.17;;;;;;;13.91;100.00;100538.38;5033259;28;20108;-70
2023/01/01 00:19:20;;;;;;;70.50;33.10;;;;;;;13.91;100.00;100546.31;5030735;28;20483;-70
2023/01/01 00:21:45;;;;;;;42.47;17.85;;;;;;;13.91;100.00;100549.81;5063636;28;20128;-70
2023/01/01 00:24:11;;;;;;;45.10;24.70;;;;;;;13.92;100.00;100529.56;5029708;28;20033;-70
2023/01/01 00:26:36;;;;;;;36.97;19.60;;;;;;;13.93;100.00;100537.47;5026863;28;20035;-73
2023/01/01 00:29:02;;;;;;;44.40;27.35;;;;;;;13.90;100.00;100526.00;5026565;28;20493;-69
2023/01/01 00:31:28;;;;;;;50.00;28.73;;;;;;;13.89;100.00;100525.16;5029799;28;20489;-70
2023/01/01 00:33:54;;;;;;;48.60;27.42;;;;;;;13.85;100.00;100512.81;5031190;28;20022;-70
2023/01/01 00:36:21;;;;;;;40.80;21.92;;;;;;;13.88;100.00;100538.38;5031786;28;20033;-71
2023/01/01 00:38:47;;;;;;;51.13;29.13;;;;;;;13.87;100.00;100528.69;5029352;28;20029;-71
2023/01/01 00:41:14;;;;;;;38.70;23.13;;;;;;;13.87;100.00;100537.47;5030151;28;20037;-70
2023/01/01 00:43:40;;;;;;;55.45;26.45;;;;;;;13.84;100.00;100532.22;5052629;28;20075;-71
2023/01/01 00:46:06;;;;;;;33.72;14.48;;;;;;;13.88;100.00;100535.72;5032390;28;20128;-69
2023/01/01 00:48:32;;;;;;;28.23;14.73;;;;;;;13.91;100.00;100544.53;5030587;28;20029;-71
2023/01/01 00:50:58;;;;;;;30.08;15.93;;;;;;;13.94;100.00;100533.06;5034002;28;20029;-69
2023/01/01 00:53:24;;;;;;;29.15;14.18;;;;;;;13.89;100.00;100527.78;5031860;28;20082;-70
2023/01/01 00:55:50;;;;;;;32.22;15.05;;;;;;;13.91;100.00;100522.50;5031149;28;20420;-69
2023/01/01 00:58:17;;;;;;;26.02;11.80;;;;;;;13.92;100.00;100524.25;5030568;28;20045;-69
2023/01/01 01:00:42;;;;;;;25.38;9.60;;;;;;;13.93;100.00;100531.28;5032178;28;20060;-70
2023/01/01 01:03:26;;;;;;;27.45;10.98;;;;;;;13.96;100.00;100547.19;5027119;28;20030;-71
2023/01/01 01:05:54;;;;;;;39.65;22.02;;;;;;;13.90;100.00;100563.03;5030355;28;20369;-70
2023/01/01 01:08:20;;;;;;;26.20;10.77;;;;;;;13.92;100.00;100556.00;5030853;28;20025;-69
2023/01/01 01:10:45;;;;;;;22.23;9.70;;;;;;;13.93;100.00;100557.75;5040373;28;20028;-70
2023/01/01 01:13:10;;;;;;;23.90;9.00;;;;;;;13.91;100.00;100570.09;5038294;28;20086;-71
2023/01/01 01:15:37;;;;;;;21.63;8.70;;;;;;;13.88;100.00;100551.59;5033826;28;20523;-69
2023/01/01 01:18:02;;;;;;;20.85;9.18;;;;;;;13.88;100.00;100564.84;5044023;28;20480;-71
2023/01/01 01:20:28;;;;;;;22.85;9.63;;;;;;;13.87;100.00;100556.00;5029805;28;20024;-70
2023/01/01 01:22:53;;;;;;;24.05;9.73;;;;;;;13.89;100.00;100562.19;5039463;28;20504;-70
2023/01/01 01:25:18;;;;;;;23.80;11.95;;;;;;;13.90;100.00;100558.63;5035063;28;20026;-70
2023/01/01 01:27:44;;;;;;;16.90;7.35;;;;;;;13.91;100.00;100573.63;5067202;28;20160;-70
2023/01/01 01:30:09;;;;;;;23.65;10.77;;;;;;;13.89;100.00;100562.19;5035488;28;20018;-69
2023/01/01 01:32:35;;;;;;;25.27;8.15;;;;;;;13.85;100.00;100555.13;5063610;28;20029;-70
2023/01/01 01:35:00;;;;;;;20.73;7.22;;;;;;;13.91;100.00;100570.97;5035095;28;20328;-69
2023/01/01 01:37:25;;;;;;;19.70;7.30;;;;;;;13.93;100.00;100558.63;5041535;28;20023;-70
2023/01/01 01:39:51;;;;;;;17.45;7.57;;;;;;;13.92;100.00;100556.00;5035368;28;20112;-70
2023/01/01 01:42:17;;;;;;;17.88;7.32;;;;;;;13.88;100.00;100578.06;5032868;28;20037;-70
2023/01/01 01:44:48;;;;;;;21.33;8.68;;;;;;;13.93;100.00;100573.63;5034513;28;20026;-69
2023/01/01 01:47:52;;;;;;;27.17;11.27;;;;;;;13.93;100.00;100576.25;5035004;28;20032;-70
2023/01/01 01:50:39;;;;;;;17.20;5.78;;;;;;;13.98;100.00;100593.91;5039151;28;20551;-71
2023/01/01 01:53:21;;;;;;;15.82;5.70;;;;;;;13.98;100.00;100580.69;5045844;28;20021;-70
2023/01/01 01:55:50;;;;;;;20.08;7.75;;;;;;;13.98;100.00;100588.63;5034329;28;20554;-69
2023/01/01 01:58:17;;;;;;;17.42;5.85;;;;;;;13.98;100.00;100582.44;5049861;28;20083;-70
2023/01/01 02:00:42;;;;;;;22.48;7.68;;;;;;;13.95;100.00;100587.72;5034818;28;20033;-70
2023/01/01 02:03:13;;;;;;;12.00;4.63;;;;;;;13.94;100.00;100584.19;5030853;28;20421;-70
2023/01/01 02:05:40;;;;;;;32.97;13.77;;;;;;;13.97;100.00;100586.84;5032303;28;20025;-70
2023/01/01 02:08:07;;;;;;;13.48;5.97;;;;;;;13.98;100.00;100620.38;5066198;28;20116;-71
2023/01/01 02:10:33;;;;;;;11.10;3.67;;;;;;;14.02;100.00;100597.41;5041621;28;20028;-69
2023/01/01 02:12:58;;;;;;;8.75;3.33;;;;;;;14.02;100.00;100608.00;5035765;28;20033;-70
2023/01/01 02:15:28;;;;;;;11.95;3.42;;;;;;;14.03;100.00;100623.00;5032878;28;20504;-69
2023/01/01 02:18:05;;;;;;;12.35;2.83;;;;;;;14.10;100.00;100622.09;5037203;28;20156;-70
2023/01/01 02:20:33;;;;;;;12.77;3.70;;;;;;;14.10;100.00;100615.94;5033743;28;20087;-71
2023/01/01 02:23:17;;;;;;;11.77;3.17;;;;;;;14.10;100.00;100610.63;5031419;28;20048;-71
2023/01/01 02:26:04;;;;;;;19.27;5.40;;;;;;;14.00;100.00;100607.13;5024744;28;20301;-70
2023/01/01 02:28:32;;;;;;;13.80;3.95;;;;;;;13.94;100.00;100626.50;5040026;28;20025;-71
2023/01/01 02:31:00;;;;;;;15.90;3.80;;;;;;;13.95;100.00;100619.47;5045138;28;20021;-70
2023/01/01 02:33:25;;;;;;;8.80;3.60;;;;;;;13.93;100.00;100622.13;5038838;28;20029;-69
2023/01/01 02:35:56;;;;;;;8.90;3.30;;;;;;;13.89;100.00;100627.41;5034422;28;20040;-69
2023/01/01 02:38:23;;;;;;;14.10;3.38;;;;;;;13.84;100.00;100614.19;5044484;28;20116;-70
2023/01/01 02:40:54;;;;;;;14.43;3.35;;;;;;;13.85;100.00;100649.44;5054164;28;20025;-70
2023/01/01 02:43:20;;;;;;;9.80;3.45;;;;;;;13.85;100.00;100615.06;5041396;28;20033;-70
2023/01/01 02:45:45;;;;;;;10.38;3.40;;;;;;;13.83;100.00;100615.94;5042954;28;20033;-70
2023/01/01 02:48:42;;;;;;;13.75;2.80;;;;;;;13.79;100.00;100619.47;5039125;28;20042;-71
2023/01/01 02:51:13;;;;;;;13.32;2.75;;;;;;;13.78;100.00;100617.72;5032984;28;20459;-70
2023/01/01 02:53:53;;;;;;;19.35;3.65;;;;;;;13.78;100.00;100632.69;5043173;28;20032;-71
2023/01/01 02:56:53;;;;;;;15.43;3.60;;;;;;;13.79;100.00;100635.34;5028231;28;20033;-70
2023/01/01 03:02:30;;;;;;;6.97;2.42;;;;;;;13.77;100.00;100639.75;5044783;28;20093;-70
2023/01/01 03:05:19;;;;;;;6.82;2.13;;;;;;;13.77;100.00;100637.13;5043632;28;20397;-70
2023/01/01 03:07:53;;;;;;;10.25;2.17;;;;;;;13.75;100.00;100644.16;5043310;28;20039;-69
2023/01/01 03:10:27;;;;;;;9.90;2.30;;;;;;;13.72;100.00;100659.16;5033670;28;20389;-70
2023/01/01 03:12:59;;;;;;;11.43;2.78;;;;;;;13.31;100.00;100658.19;5053592;28;20040;-68
2023/01/01 03:15:35;;;;;;;9.85;2.33;;;;;;;12.97;100.00;100666.00;5042064;28;20036;-70
2023/01/01 03:18:09;;;;;;;9.77;2.63;;;;;;;12.87;100.00;100658.91;5023400;28;20108;-69
2023/01/01 03:20:39;;;;;;;11.77;2.65;;;;;;;12.90;100.00;100666.84;5015348;28;20032;-70
2023/01/01 03:23:08;;;;;;;12.43;2.60;;;;;;;12.91;100.00;100658.03;5032842;28;20503;-72
2023/01/01 03:25:41;;;;;;;7.85;2.05;;;;;;;13.00;100.00;100687.13;5042223;28;20059;-70
2023/01/01 03:28:13;;;;;;;12.05;2.20;;;;;;;13.07;100.00;100686.28;5047385;28;20108;-70
2023/01/01 03:30:41;;;;;;;10.38;2.45;;;;;;;13.08;100.00;100680.13;5035609;28;20030;-70
2023/01/01 03:33:42;;;;;;;9.05;2.72;;;;;;;13.13;100.00;100707.44;5037975;28;20382;-69
2023/01/01 03:36:34;;;;;;;8.02;2.05;;;;;;;13.12;100.00;100692.47;5014164;28;20052;-70
2023/01/01 03:39:12;;;;;;;9.10;2.33;;;;;;;13.11;100.00;100709.19;5021250;28;20108;-69
2023/01/01 03:42:19;;;;;;;11.60;1.77;;;;;;;13.15;100.00;100710.97;5033902;28;20068;-70
2023/01/01 03:44:48;;;;;;;7.50;1.60;;;;;;;13.15;100.00;100737.38;5028092;28;20041;-69
2023/01/01 03:47:14;;;;;;;9.55;2.10;;;;;;;13.14;100.00;100727.72;5033073;28;20041;-69
2023/01/01 03:49:40;;;;;;;6.93;2.47;;;;;;;13.01;100.00;100722.34;5027568;28;20026;-69
2023/01/01 03:52:39;;;;;;;5.07;2.10;;;;;;;13.03;100.00;100721.47;5032420;28;20028;-70
2023/01/01 03:55:38;;;;;;;7.72;1.95;;;;;;;12.95;100.00;100723.22;5033158;28;20029;-69
2023/01/01 03:58:25;;;;;;;4.60;1.35;;;;;;;12.93;100.00;100725.84;5038288;28;20056;-70
2023/01/01 04:01:03;;;;;;;7.63;1.48;;;;;;;12.88;100.00;100729.34;5030468;28;20036;-70
2023/01/01 04:03:30;;;;;;;8.23;1.77;;;;;;;12.82;100.00;100731.06;5038284;28;20031;-70
2023/01/01 04:05:55;;;;;;;5.85;1.50;;;;;;;12.75;100.00;100742.47;5051129;28;20233;-71
2023/01/01 04:08:21;;;;;;;13.27;1.25;;;;;;;12.72;100.00;100736.28;5036968;28;20468;-70
2023/01/01 04:10:56;;;;;;;8.13;1.45;;;;;;;12.69;100.00;100753.00;5043536;28;20021;-69
2023/01/01 04:13:22;;;;;;;4.13;1.08;;;;;;;12.65;100.00;100751.22;5047219;28;20047;-70
2023/01/01 04:15:49;;;;;;;4.85;0.80;;;;;;;12.59;100.00;100748.53;5040785;28;20025;-70
2023/01/01 04:18:14;;;;;;;6.53;1.75;;;;;;;12.59;100.00;100765.25;5033499;28;20029;-70
2023/01/01 04:20:39;;;;;;;11.25;1.40;;;;;;;12.51;100.00;100768.69;5042656;28;20128;-70
2023/01/01 04:23:05;;;;;;;5.78;1.52;;;;;;;12.44;100.00;100760.75;5039332;28;20029;-69
2023/01/01 04:25:30;;;;;;;6.32;1.20;;;;;;;12.38;100.00;100784.44;5033206;28;20025;-69
2023/01/01 04:28:02;;;;;;;10.75;2.00;;;;;;;12.34;100.00;100773.84;5032647;28;20025;-70
2023/01/01 04:30:28;;;;;;;9.35;1.95;;;;;;;12.32;100.00;100789.69;5022425;28;20124;-69
2023/01/01 04:32:53;;;;;;;8.75;1.48;;;;;;;12.31;100.00;100783.50;5030843;28;20029;-70
2023/01/01 04:35:19;;;;;;;10.13;1.85;;;;;;;12.29;100.00;100802.84;5048269;28;20516;-69
2023/01/01 04:37:44;;;;;;;7.60;1.63;;;;;;;12.28;100.00;100804.59;5031903;28;20040;-70
2023/01/01 04:40:11;;;;;;;21.30;2.25;;;;;;;12.23;100.00;100808.06;5032858;28;20458;-70
2023/01/01 04:42:37;;;;;;;12.70;2.95;;;;;;;12.18;100.00;100808.03;5037002;28;20029;-69
2023/01/01 04:45:05;;;;;;;12.38;1.98;;;;;;;12.21;100.00;100813.34;5032978;28;20024;-69
2023/01/01 04:47:30;;;;;;;10.20;2.13;;;;;;;12.18;100.00;100826.50;5033793;28;20037;-70
2023/01/01 04:49:55;;;;;;;11.90;2.22;;;;;;;12.16;100.00;100830.00;5039772;28;20017;-70
2023/01/01 04:52:21;;;;;;;10.48;1.55;;;;;;;12.13;100.00;100821.16;5039379;28;20087;-70
2023/01/01 04:54:46;;;;;;;7.75;1.33;;;;;;;12.14;100.00;100822.94;5032293;28;20017;-69
2023/01/01 04:57:12;;;;;;;10.35;2.65;;;;;;;12.10;100.00;100809.69;5032953;28;20033;-70
2023/01/01 04:59:37;;;;;;;13.88;2.65;;;;;;;12.09;100.00;100822.00;5031450;28;20068;-69
2023/01/01 05:02:03;;;;;;;11.20;2.30;;;;;;;12.08;100.00;100827.25;5030389;28;20033;-69
2023/01/01 05:04:28;;;;;;;12.63;2.13;;;;;;;12.03;100.00;100827.22;5031357;28;20041;-70
2023/01/01 05:06:54;;;;;;;11.45;1.98;;;;;;;12.00;100.00;100824.53;5048882;28;20039;-69
2023/01/01 05:09:20;;;;;;;11.85;1.73;;;;;;;11.99;100.00;100828.03;5035617;28;20024;-68
2023/01/01 05:11:46;;;;;;;9.10;2.35;;;;;;;11.93;100.00;100835.88;5047129;28;20032;-70
2023/01/01 05:14:11;;;;;;;18.77;3.33;;;;;;;11.94;100.00;100840.28;5031555;28;20029;-70
2023/01/01 05:16:38;;;;;;;10.95;1.73;;;;;;;11.97;100.00;100857.03;5031624;28;20053;-70
2023/01/01 05:19:05;;;;;;;10.68;1.92;;;;;;;11.90;100.00;100847.25;5031840;28;20030;-69
2023/01/01 05:21:35;;;;;;;12.88;2.65;;;;;;;11.85;100.00;100851.59;5039695;28;20108;-70
2023/01/01 05:24:03;;;;;;;10.68;2.00;;;;;;;11.89;100.00;100847.25;5032915;28;20086;-69
2023/01/01 05:26:31;;;;;;;13.95;2.20;;;;;;;11.89;100.00;100852.53;5048114;28;20033;-70
2023/01/01 05:28:57;;;;;;;11.90;2.55;;;;;;;11.87;100.00;100854.25;5031848;28;20100;-70
2023/01/01 05:31:26;;;;;;;9.90;1.98;;;;;;;11.80;100.00;100858.56;5029479;28;20029;-70
2023/01/01 05:33:52;;;;;;;15.38;2.00;;;;;;;11.82;100.00;100868.25;5032339;28;20041;-70
2023/01/01 05:36:20;;;;;;;10.75;2.17;;;;;;;11.81;100.00;100877.06;5047088;28;20033;-69
2023/01/01 05:38:45;;;;;;;9.93;1.63;;;;;;;11.86;100.00;100863.03;5048466;28;20045;-70
2023/01/01 05:41:13;;;;;;;14.10;2.53;;;;;;;11.85;100.00;100871.81;5031735;28;20477;-69
2023/01/01 05:43:40;;;;;;;12.80;1.77;;;;;;;11.76;100.00;100888.38;5031724;28;20386;-69
2023/01/01 05:46:10;;;;;;;18.27;2.35;;;;;;;11.76;100.00;100889.28;5036538;28;20064;-69
2023/01/01 05:48:35;;;;;;;7.45;2.70;;;;;;;11.77;100.00;100914.81;5039243;28;20333;-70
2023/01/01 05:51:06;;;;;;;9.98;2.85;;;;;;;11.72;100.00;100900.66;5031630;28;20048;-70
2023/01/01 05:53:31;;;;;;;17.98;2.05;;;;;;;11.74;100.00;100896.28;5031145;28;20025;-71
2023/01/01 05:55:57;;;;;;;11.23;2.13;;;;;;;11.73;100.00;100905.06;5031806;28;20358;-69
2023/01/01 05:58:23;;;;;;;11.93;2.20;;;;;;;11.72;100.00;100908.56;5031341;28;20041;-70
2023/01/01 06:00:48;;;;;;;10.88;2.03;;;;;;;11.75;100.00;100913.00;5033315;28;20071;-70
2023/01/01 06:03:14;;;;;;;15.88;2.58;;;;;;;11.69;100.00;100903.25;5030620;28;20535;-69
2023/01/01 06:05:39;;;;;;;13.68;1.60;;;;;;;11.68;100.00;100905.88;5047670;28;20025;-69
2023/01/01 06:08:04;;;;;;;9.07;1.85;;;;;;;11.68;100.00;100908.50;5054627;28;20065;-70
2023/01/01 06:10:30;;;;;;;11.48;1.48;;;;;;;11.66;100.00;100919.03;5040022;28;20083;-69
2023/01/01 06:12:58;;;;;;;16.40;2.35;;;;;;;11.70;100.00;100918.19;5034486;28;20033;-68
2023/01/01 06:15:24;;;;;;;17.73;2.63;;;;;;;11.72;100.00;100920.84;5035990;28;20026;-71
2023/01/01 06:17:50;;;;;;;9.68;1.73;;;;;;;11.71;100.00;100937.56;5045412;28;20102;-70
2023/01/01 06:20:15;;;;;;;16.13;2.40;;;;;;;11.69;100.00;100949.81;5033384;28;20112;-68
2023/01/01 06:22:41;;;;;;;14.60;2.55;;;;;;;11.70;100.00;100949.84;5040583;28;20029;-69
2023/01/01 06:25:07;;;;;;;11.48;2.20;;;;;;;11.69;100.00;100934.88;5040944;28;20024;-70
2023/01/01 06:27:34;;;;;;;18.75;2.35;;;;;;;11.66;100.00;100950.66;5034784;28;20045;-69
2023/01/01 06:30:00;;;;;;;11.60;1.80;;;;;;;11.66;100.00;100945.38;5034317;28;20469;-68
2023/01/01 06:32:25;;;;;;;16.48;1.92;;;;;;;11.67;100.00;100939.25;5033373;28;20070;-69
2023/01/01 06:34:50;;;;;;;15.63;2.45;;;;;;;11.68;100.00;100950.66;5039743;28;20420;-69
2023/01/01 06:37:16;;;;;;;16.42;2.78;;;;;;;11.64;100.00;100960.31;5034531;28;20029;-70
2023/01/01 06:39:41;;;;;;;12.20;3.30;;;;;;;11.60;100.00;100955.84;5034510;28;20025;-70
2023/01/01 06:42:06;;;;;;;13.02;2.70;;;;;;;11.60;100.00;100945.31;5050208;28;20036;-71
2023/01/01 06:44:32;;;;;;;15.38;2.08;;;;;;;11.57;100.00;100958.44;5035162;28;20419;-69
2023/01/01 06:46:57;;;;;;;14.75;1.95;;;;;;;11.59;100.00;100972.53;5049938;28;20028;-69
2023/01/01 06:49:22;;;;;;;15.07;1.90;;;;;;;11.56;100.00;100977.78;5034092;28;20020;-69
2023/01/01 06:51:48;;;;;;;19.85;2.58;;;;;;;11.54;100.00;100982.13;5042423;28;20089;-70
2023/01/01 06:54:13;;;;;;;12.25;2.08;;;;;;;11.52;100.00;100991.75;5036560;28;20029;-68
2023/01/01 06:56:38;;;;;;;21.75;3.75;;;;;;;11.50;100.00;100996.09;5034302;28;20026;-71
2023/01/01 06:59:04;;;;;;;11.43;1.52;;;;;;;11.47;100.00;101003.09;5033937;28;20585;-69
2023/01/01 07:01:32;;;;;;;16.30;2.63;;;;;;;11.46;100.00;100995.16;5032015;28;20436;-71
2023/01/01 07:04:03;;;;;;;10.70;1.80;;;;;;;11.51;100.00;101006.66;5048807;28;20033;-70
2023/01/01 07:06:30;;;;;;;14.60;1.70;;;;;;;11.50;100.00;101020.69;5033686;28;20043;-69
2023/01/01 07:08:55;;;;;;;17.00;2.30;;;;;;;11.48;100.00;101031.22;5035742;28;20474;-70
2023/01/01 07:11:21;;;;;;;15.02;2.45;;;;;;;11.43;100.00;101018.84;5051178;28;20029;-69
2023/01/01 07:13:47;;;;;;;12.85;1.92;;;;;;;11.39;100.00;101015.25;5032651;28;20543;-69
2023/01/01 07:16:13;;;;;;;17.05;2.65;;;;;;;11.40;100.00;101017.03;5033840;28;20048;-69
2023/01/01 07:18:38;;;;;;;17.73;2.13;;;;;;;11.35;100.00;101045.06;5037765;28;20036;-69
2023/01/01 07:21:05;;;;;;;16.88;1.95;;;;;;;11.32;100.00;101034.47;5034594;28;20057;-68
2023/01/01 07:23:34;;;;;;;15.40;2.40;;;;;;;11.30;100.00;101046.75;5024970;28;20030;-69
2023/01/01 07:26:00;;;;;;;17.90;2.78;;;;;;;11.29;100.00;101051.13;5031592;28;20025;-69
2023/01/01 07:28:25;;;;;;;14.40;2.53;;;;;;;11.31;100.00;101048.50;5051442;28;20033;-71
2023/01/01 07:30:54;;;;;;;24.50;3.33;;;;;;;11.28;100.00;101069.53;5053353;28;20024;-69
2023/01/01 07:33:22;;;;;;;11.02;2.30;;;;;;;11.29;100.00;101074.81;5037875;28;20068;-70
2023/01/01 07:35:49;;;;;;;18.60;2.13;;;;;;;11.23;100.00;101076.47;5047976;28;20055;-71
2023/01/01 07:38:14;;;;;;;14.73;1.70;;;;;;;11.18;100.00;101081.66;5048957;28;20476;-69
2023/01/01 07:40:40;;;;;;;7.30;1.70;;;;;;;11.17;100.00;101097.44;5027219;28;20057;-70
2023/01/01 07:43:06;;;;;;;19.23;3.58;;;;;;;11.20;100.00;101100.13;5039270;28;20096;-69
2023/01/01 07:45:32;;;;;;;19.35;2.00;;;;;;;11.15;100.00;101105.31;5033397;28;20495;-69
2023/01/01 07:47:59;;;;;;;21.10;2.22;;;;;;;11.20;100.00;101110.66;5044516;28;20385;-69
2023/01/01 07:50:26;;;;;;;14.45;1.83;;;;;;;11.19;100.00;101122.03;5041324;28;20151;-69
2023/01/01 07:52:52;;;;;;;15.75;2.60;;;;;;;11.17;100.00;101123.78;5037888;28;20021;-69
2023/01/01 07:55:18;;;;;;;14.68;1.75;;;;;;;11.22;100.00;101127.41;5034007;28;20363;-69
2023/01/01 07:57:44;;;;;;;18.38;2.90;;;;;;;11.13;100.00;101143.91;5031906;28;20032;-69
2023/01/01 08:00:13;;;;;;;12.95;2.08;;;;;;;11.19;100.00;101145.75;5033241;28;20079;-70
2023/01/01 08:02:38;;;;;;;9.85;1.60;;;;;;;11.17;100.00;101150.13;5035566;28;20032;-70
2023/01/01 08:05:04;;;;;;;9.55;1.35;;;;;;;11.16;100.00;101143.94;5045422;28;20413;-70
2023/01/01 08:07:29;;;;;;;15.82;1.88;;;;;;;11.15;100.00;101152.72;5043402;28;20025;-68
2023/01/01 08:09:55;;;;;;;12.57;1.80;;;;;;;11.15;100.00;101152.72;5042699;28;20028;-70
2023/01/01 08:12:20;;;;;;;8.38;1.77;;;;;;;11.13;100.00;101144.78;5037306;28;20035;-69
2023/01/01 08:14:45;;;;;;;16.45;1.90;;;;;;;11.14;100.00;101149.19;5033065;28;20107;-69
2023/01/01 08:17:11;;;;;;;21.00;1.83;;;;;;;11.14;100.00;101141.28;5032061;28;20069;-69
2023/01/01 08:19:36;;;;;;;15.88;2.20;;;;;;;11.11;100.00;101138.59;5030760;28;20033;-71
2023/01/01 08:22:02;;;;;;;8.68;2.15;;;;;;;11.12;100.00;101145.66;5057820;28;20174;-70
2023/01/01 08:24:27;;;;;;;11.80;1.75;;;;;;;11.14;100.00;101140.41;5030209;28;20492;-69
2023/01/01 08:26:52;;;;;;;8.02;1.65;;;;;;;11.13;100.00;101139.50;5031488;28;20033;-69
2023/01/01 08:29:19;;;;;;;16.27;1.67;;;;;;;11.17;100.00;101150.13;5032793;28;20108;-70
2023/01/01 08:31:44;;;;;;;14.48;1.70;;;;;;;11.13;100.00;101154.44;5032118;28;20060;-69
2023/01/01 08:34:10;;;;;;;14.65;1.98;;;;;;;11.11;100.00;101153.53;5039814;28;20029;-69
2023/01/01 08:36:36;;;;;;;12.32;1.70;;;;;;;11.09;100.00;101164.00;5035940;28;20033;-70
2023/01/01 08:39:01;;;;;;;16.08;1.98;;;;;;;11.03;100.00;101163.00;5031857;28;20565;-69
2023/01/01 08:41:26;;;;;;;13.75;2.30;;;;;;;11.03;100.00;101174.44;5032117;28;20029;-68
2023/01/01 08:43:52;;;;;;;16.70;2.20;;;;;;;11.07;100.00;101186.81;5031113;28;20033;-69
2023/01/01 08:46:17;;;;;;;16.67;2.75;;;;;;;11.11;100.00;101191.28;5032968;28;20048;-69
2023/01/01 08:48:42;;;;;;;15.77;2.22;;;;;;;11.09;100.00;101195.59;5032267;28;20522;-70
2023/01/01 08:51:09;;;;;;;10.15;2.10;;;;;;;11.04;100.00;101196.38;5031126;28;20492;-69
2023/01/01 08:53:35;;;;;;;13.85;2.08;;;;;;;11.05;100.00;101187.63;5032129;28;20465;-70
2023/01/01 08:56:04;;;;;;;8.73;1.67;;;;;;;11.09;100.00;101195.59;5030699;28;20083;-70
2023/01/01 08:58:34;;;;;;;16.40;2.17;;;;;;;11.08;100.00;101198.22;5030074;28;20109;-69
2023/01/01 09:01:00;;;;;;;8.00;1.73;;;;;;;11.11;100.00;101191.28;5027017;28;20077;-68
2023/01/01 09:03:25;;;;;;;14.20;1.95;;;;;;;11.18;100.00;101194.00;5031698;28;20025;-69
2023/01/01 09:05:51;;;;;;;11.98;2.05;;;;;;;11.18;100.00;101199.28;5031016;28;20032;-70
2023/01/01 09:08:17;;;;;;;12.23;1.77;;;;;;;11.17;100.00;101200.16;5034765;28;20029;-69
2023/01/01 09:10:42;;;;;;;10.13;1.77;;;;;;;11.26;100.00;101197.72;5035651;28;20039;-69
2023/01/01 09:13:09;;;;;;;12.77;1.92;;;;;;;11.27;100.00;101194.19;5031837;28;20501;-70
2023/01/01 09:15:34;;;;;;;12.77;1.70;;;;;;;11.29;100.00;101189.88;5030417;28;20036;-69
2023/01/01 09:18:00;;;;;;;20.10;4.18;;;;;;;11.29;100.00;101193.38;5030326;28;20025;-68
2023/01/01 09:20:28;;;;;;;15.60;2.28;;;;;;;11.27;100.00;101200.38;5031306;28;20018;-70
2023/01/01 09:22:53;;;;;;;13.65;2.28;;;;;;;11.29;100.00;101195.13;5029305;28;20038;-71
2023/01/01 09:25:18;;;;;;;23.75;2.47;;;;;;;11.34;100.00;101198.75;5029639;28;20040;-75
2023/01/01 09:27:44;;;;;;;18.35;1.85;;;;;;;11.38;100.00;101203.22;5032373;28;20022;-69
2023/01/01 09:30:09;;;;;;;10.15;1.55;;;;;;;11.36;100.00;101204.91;5025394;28;20045;-69
2023/01/01 09:32:35;;;;;;;9.10;1.60;;;;;;;11.42;100.00;101186.59;5025852;28;20029;-70
2023/01/01 09:35:00;;;;;;;16.67;1.85;;;;;;;11.51;100.00;101198.16;5029359;28;20032;-69
2023/01/01 09:37:26;;;;;;;7.55;2.00;;;;;;;11.53;100.00;101199.97;5032769;28;20350;-70
2023/01/01 09:39:51;;;;;;;7.10;1.73;;;;;;;11.59;100.00;101213.25;5026636;28;20084;-70
2023/01/01 09:42:44;;;;;;;9.85;1.73;;;;;;;11.62;100.00;101218.59;5038852;28;20116;-70
2023/01/01 09:45:27;;;;;;;17.58;2.13;;;;;;;11.73;100.00;101210.84;5044494;28;20436;-70
2023/01/01 09:48:02;;;;;;;8.75;2.53;;;;;;;11.81;100.00;101213.63;5028443;28;20474;-69
2023/01/01 09:50:46;;;;;;;8.27;1.65;;;;;;;12.00;100.00;101203.44;5030577;28;20057;-70
2023/01/01 09:53:22;;;;;;;;;;;;;;;12.12;100.00;101224.75;5034967;28;20038;-69
2023/01/01 09:55:52;;;;;;;12.27;2.15;;;;;;;12.28;100.00;101234.66;5032760;28;20357;-70
2023/01/01 09:58:39;;;;;;;9.23;1.48;;;;;;;12.48;100.00;101232.34;5033866;28;20068;-70
2023/01/01 10:01:20;;;;;;;14.10;2.08;;;;;;;12.72;100.00;101240.59;5034202;28;20477;-69
2023/01/01 10:03:57;;;;;;;15.90;2.88;;;;;;;12.63;100.00;101251.94;5030716;28;20477;-70
2023/01/01 10:06:32;;;;;;;13.02;1.92;;;;;;;12.56;100.00;101237.75;5033997;28;20044;-71
2023/01/01 10:09:04;;;;;;;16.25;2.03;;;;;;;12.57;100.00;101262.38;5028996;28;20096;-70
2023/01/01 10:11:46;;;;;;;10.48;2.78;;;;;;;12.66;100.00;101249.31;5033415;28;20604;-70
2023/01/01 10:14:35;;;;;;;10.52;1.52;;;;;;;12.69;100.00;101245.84;5031579;28;20029;-70
2023/01/01 10:17:14;;;;;;;11.63;2.05;;;;;;;12.58;100.00;101235.13;5028833;28;20029;-71
2023/01/01 10:19:49;;;;;;;10.30;1.25;;;;;;;12.66;100.00;101225.56;5062349;28;20033;-70
2023/01/01 10:22:28;;;;;;;9.32;2.42;;;;;;;12.65;100.00;101216.72;5032355;28;20041;-70
2023/01/01 10:25:18;;;;;;;12.45;2.00;;;;;;;12.63;100.00;101217.59;5026696;28;20120;-70
2023/01/01 10:27:51;;;;;;;18.65;2.75;;;;;;;12.68;100.00;101230.84;5037795;28;20439;-70
2023/01/01 10:30:22;;;;;;;8.10;1.60;;;;;;;12.75;100.00;101220.41;5030597;28;20421;-71
2023/01/01 10:32:50;;;;;;;9.00;1.80;;;;;;;12.93;100.00;101221.53;5035213;28;20056;-69
2023/01/01 10:35:22;;;;;;;9.88;2.22;;;;;;;13.10;100.00;101222.63;5031954;28;20035;-69
2023/01/01 10:37:48;;;;;;;10.40;2.05;;;;;;;13.32;100.00;101236.06;5032010;28;20033;-70
2023/01/01 10:40:19;;;;;;;18.00;2.65;;;;;;;13.69;100.00;101249.75;5034019;28;20025;-70
2023/01/01 10:42:48;;;;;;;15.07;2.75;;;;;;;13.75;100.00;101254.19;5029977;28;20382;-70
2023/01/01 10:45:16;;;;;;;15.20;2.58;;;;;;;13.54;100.00;101260.13;5022872;28;20033;-70
2023/01/01 10:48:18;;;;;;;24.55;4.22;;;;;;;13.59;100.00;101267.28;5031826;28;20036;-71
2023/01/01 10:50:48;;;;;;;15.60;2.83;;;;;;;13.57;100.00;101279.56;5045938;28;20458;-70
2023/01/01 10:53:38;;;;;;;8.85;2.15;;;;;;;13.33;100.00;101281.03;5037467;28;20049;-72
2023/01/01 10:56:05;;;;;;;16.33;2.15;;;;;;;13.03;100.00;101281.53;5034725;28;20037;-70
2023/01/01 10:58:38;;;;;;;16.63;2.33;;;;;;;12.82;100.00;101277.72;5022453;28;20447;-70
2023/01/01 11:01:06;;;;;;;10.35;2.30;;;;;;;12.61;100.00;101272.13;5044138;28;20041;-70
2023/01/01 11:03:54;;;;;;;11.82;2.30;;;;;;;12.63;100.00;101284.47;5033944;28;20393;-70
2023/01/01 11:06:21;;;;;;;12.07;2.40;;;;;;;12.64;100.00;101294.19;5036100;28;20033;-70
2023/01/01 11:08:58;;;;;;;15.60;2.60;;;;;;;12.63;100.00;101280.97;5034326;28;20029;-68
2023/01/01 11:11:29;;;;;;;15.23;2.08;;;;;;;12.42;100.00;101270.97;5034334;28;20037;-71
2023/01/01 11:14:17;;;;;;;10.88;2.78;;;;;;;12.40;100.00;101278.84;5032364;28;20029;-70
2023/01/01 11:16:44;;;;;;;15.32;2.08;;;;;;;12.35;100.00;101287.56;5030616;28;20032;-70
2023/01/01 11:19:39;;;;;;;10.13;2.08;;;;;;;12.31;100.00;101294.53;5032571;28;20500;-71
2023/01/01 11:22:05;;;;;;;17.67;3.33;;;;;;;12.35;100.00;101277.00;5026565;28;20052;-71
2023/01/01 11:24:54;;;;;;;11.73;2.50;;;;;;;12.26;100.00;101281.28;5042163;28;20037;-70
2023/01/01 11:27:23;;;;;;;13.50;2.13;;;;;;;12.13;100.00;101280.16;5037065;28;20041;-70